Time;durP1;ratioP1;P1;durP2;ratioP2;P2;SDS_P1;SDS_P2;PMS_P1;PMS_P2;Temp;Humidity;BMP_temperature;BMP_pressure;BME280_temperature;BME280_humidity;BME280_pressure;Samples;Min_cycle;Max_cycle;Signal;HPM_P1;HPM_P2
2023/07/19 00:01:10;;;;;;;5.65;2.70;;;;;;;22.69;100.00;96057.88;5076797;28;20216;-67
2023/07/19 00:03:36;;;;;;;6.18;2.20;;;;;;;22.82;100.00;96060.13;5077027;28;20224;-66
2023/07/19 00:06:03;;;;;;;4.63;2.40;;;;;;;22.86;100.00;96058.56;5076401;28;20204;-66
2023/07/19 00:08:32;;;;;;;6.20;2.22;;;;;;;22.96;100.00;96058.63;5076152;28;20210;-66
2023/07/19 00:11:00;;;;;;;11.38;2.95;;;;;;;22.97;100.00;96066.44;5077027;28;20235;-66
2023/07/19 00:13:28;;;;;;;3.08;2.13;;;;;;;22.83;100.00;96065.25;5077048;28;20207;-66
2023/07/19 00:15:54;;;;;;;4.45;2.17;;;;;;;22.81;100.00;96055.81;5076851;28;20204;-66
2023/07/19 00:18:21;;;;;;;8.18;2.55;;;;;;;22.71;100.00;96055.78;5076569;28;20603;-67
2023/07/19 00:20:47;;;;;;;5.32;2.22;;;;;;;22.70;100.00;96056.81;5077636;28;20220;-67
2023/07/19 00:23:14;;;;;;;7.50;2.22;;;;;;;22.57;100.00;96046.50;5076213;28;20310;-67
2023/07/19 00:25:40;;;;;;;6.10;2.67;;;;;;;22.64;100.00;96044.41;5076503;28;20210;-66
2023/07/19 00:28:08;;;;;;;5.00;2.55;;;;;;;22.94;100.00;96045.47;5077011;28;20211;-65
2023/07/19 00:30:35;;;;;;;7.15;2.78;;;;;;;22.70;100.00;96051.47;5076321;28;20707;-68
2023/07/19 00:33:02;;;;;;;7.00;2.45;;;;;;;22.74;100.00;96047.97;5076865;28;20283;-67
2023/07/19 00:35:29;;;;;;;3.63;2.22;;;;;;;22.71;100.00;96036.97;5076798;28;20199;-67
2023/07/19 00:37:55;;;;;;;4.95;2.40;;;;;;;22.69;100.00;96036.41;5075881;28;20337;-67
2023/07/19 00:40:22;;;;;;;5.30;2.33;;;;;;;22.59;100.00;96030.13;5076500;28;20598;-67
2023/07/19 00:42:48;;;;;;;3.65;2.50;;;;;;;22.43;100.00;96031.88;5076815;28;20313;-68
2023/07/19 00:45:17;;;;;;;6.45;2.78;;;;;;;22.61;100.00;96036.88;5076807;28;20597;-67
2023/07/19 00:47:43;;;;;;;6.38;2.03;;;;;;;22.55;100.00;96031.72;5076014;28;20280;-67
2023/07/19 00:50:10;;;;;;;5.82;2.00;;;;;;;22.72;100.00;96041.25;5076889;28;20554;-67
2023/07/19 00:52:37;;;;;;;5.50;2.58;;;;;;;22.71;100.00;96031.59;5076357;28;20320;-66
2023/07/19 00:55:05;;;;;;;4.22;1.60;;;;;;;22.66;100.00;96026.19;5076042;28;20679;-66
2023/07/19 00:57:31;;;;;;;3.60;1.98;;;;;;;22.36;100.00;96025.09;5076124;28;20204;-67
2023/07/19 00:59:58;;;;;;;2.85;1.90;;;;;;;22.50;100.00;96020.94;5076816;28;20224;-67
2023/07/19 01:02:26;;;;;;;4.85;2.10;;;;;;;22.64;100.00;96028.28;5076122;28;20204;-66
2023/07/19 01:04:53;;;;;;;4.00;2.03;;;;;;;22.34;100.00;96038.78;5076438;28;21399;-67
2023/07/19 01:07:19;;;;;;;6.50;2.25;;;;;;;22.28;100.00;96026.34;5075713;28;20203;-67
2023/07/19 01:09:46;;;;;;;4.07;2.05;;;;;;;22.33;100.00;96042.53;5076093;28;20238;-67
2023/07/19 01:12:12;;;;;;;6.47;2.63;;;;;;;22.37;100.00;96030.19;5076550;28;20523;-68
2023/07/19 01:14:39;;;;;;;3.53;2.28;;;;;;;22.31;100.00;96036.63;5076730;28;20208;-67
2023/07/19 01:17:06;;;;;;;10.50;2.45;;;;;;;22.42;100.00;96038.31;5077397;28;20218;-67
2023/07/19 01:19:34;;;;;;;6.35;2.15;;;;;;;22.56;100.00;96042.19;5080139;28;20223;-66
2023/07/19 01:22:00;;;;;;;4.85;2.22;;;;;;;22.52;100.00;96038.41;5080867;28;20742;-68
2023/07/19 01:24:28;;;;;;;6.47;2.60;;;;;;;22.74;100.00;96042.63;5080280;28;20234;-67
2023/07/19 01:26:56;;;;;;;6.93;2.25;;;;;;;22.49;100.00;96038.94;5079019;28;21169;-67
2023/07/19 01:29:22;;;;;;;5.18;2.47;;;;;;;22.53;100.00;96042.72;5080699;28;20235;-66
2023/07/19 01:31:49;;;;;;;4.10;1.88;;;;;;;22.32;100.00;96048.94;5081104;28;20585;-67
2023/07/19 01:34:15;;;;;;;5.57;2.15;;;;;;;22.43;100.00;96050.69;5079608;28;20207;-67
2023/07/19 01:36:42;;;;;;;4.35;2.40;;;;;;;22.43;100.00;96037.25;5079875;28;21144;-66
2023/07/19 01:39:08;;;;;;;7.03;2.38;;;;;;;22.42;100.00;96041.00;5080143;28;20219;-68
2023/07/19 01:41:36;;;;;;;3.03;1.83;;;;;;;22.45;100.00;96028.94;5079829;28;20203;-65
2023/07/19 01:44:02;;;;;;;5.18;2.47;;;;;;;22.34;100.00;96022.66;5079761;28;20227;-67
2023/07/19 01:46:29;;;;;;;8.02;2.47;;;;;;;22.28;100.00;96023.69;5080170;28;20199;-67
2023/07/19 01:48:55;;;;;;;7.03;2.70;;;;;;;22.37;100.00;96024.84;5078654;28;20199;-67
2023/07/19 01:51:22;;;;;;;4.25;2.35;;;;;;;22.42;100.00;96024.09;5079630;28;20995;-66
2023/07/19 01:53:48;;;;;;;6.85;2.70;;;;;;;22.44;100.00;96020.09;5079883;28;20200;-66
2023/07/19 01:56:15;;;;;;;4.30;2.15;;;;;;;22.44;100.00;96028.13;5079617;28;20204;-67
2023/07/19 01:58:43;;;;;;;4.30;2.38;;;;;;;22.65;100.00;96024.53;5078928;28;20318;-67
2023/07/19 02:01:09;;;;;;;6.50;2.22;;;;;;;22.36;100.00;96025.88;5079183;28;20700;-67
2023/07/19 02:03:36;;;;;;;4.75;2.22;;;;;;;22.35;100.00;96028.84;5079115;28;20235;-66
2023/07/19 02:06:02;;;;;;;4.55;2.30;;;;;;;22.28;100.00;96018.31;5079764;28;20635;-68
2023/07/19 02:08:29;;;;;;;5.03;2.65;;;;;;;22.34;100.00;96014.63;5078587;28;20204;-67
2023/07/19 02:10:55;;;;;;;6.05;2.22;;;;;;;22.30;100.00;96018.88;5079344;28;20235;-65
2023/07/19 02:13:22;;;;;;;7.72;2.75;;;;;;;22.28;100.00;96025.56;5079610;28;21106;-67
2023/07/19 02:15:50;;;;;;;3.45;2.15;;;;;;;22.44;100.00;96020.09;5079064;28;20204;-67
2023/07/19 02:18:17;;;;;;;6.95;2.90;;;;;;;22.24;100.00;96016.38;5078561;28;21169;-66
2023/07/19 02:20:48;;;;;;;7.50;3.05;;;;;;;22.67;100.00;96013.53;5079390;28;20289;-66
2023/07/19 02:23:15;;;;;;;6.53;2.80;;;;;;;22.28;100.00;96014.81;5079090;28;20224;-66
2023/07/19 02:25:42;;;;;;;6.50;2.92;;;;;;;22.30;100.00;96016.19;5078537;28;20212;-68
2023/07/19 02:28:10;;;;;;;4.57;2.50;;;;;;;22.25;100.00;96008.06;5077008;28;20199;-66
2023/07/19 02:30:42;;;;;;;5.68;2.33;;;;;;;22.66;100.00;96011.91;5078853;28;20236;-67
2023/07/19 02:33:10;;;;;;;5.68;2.55;;;;;;;22.48;100.00;96004.25;5079269;28;20200;-67
2023/07/19 02:35:37;;;;;;;6.50;3.22;;;;;;;22.36;100.00;95993.66;5078793;28;20223;-67
2023/07/19 02:38:03;;;;;;;4.35;2.65;;;;;;;22.20;100.00;95999.16;5078596;28;20206;-68
2023/07/19 02:40:30;;;;;;;5.28;2.47;;;;;;;22.46;100.00;95999.13;5078539;28;20228;-68
2023/07/19 02:42:57;;;;;;;5.47;2.10;;;;;;;22.23;100.00;96004.81;5078678;28;20250;-66
2023/07/19 02:45:24;;;;;;;5.72;3.05;;;;;;;22.11;100.00;96014.91;5078492;28;20970;-68
2023/07/19 02:47:50;;;;;;;6.13;2.55;;;;;;;22.15;100.00;96007.94;5078418;28;20211;-67
2023/07/19 02:50:19;;;;;;;5.82;2.40;;;;;;;22.50;100.00;96010.19;5078343;28;20220;-66
2023/07/19 02:52:46;;;;;;;5.40;2.25;;;;;;;22.09;100.00;96011.63;5078566;28;20200;-66
2023/07/19 02:55:13;;;;;;;6.15;2.80;;;;;;;22.14;100.00;96024.31;5076214;28;20200;-68
2023/07/19 02:57:39;;;;;;;5.28;2.47;;;;;;;22.02;100.00;96022.84;5077834;28;20208;-66
2023/07/19 03:00:07;;;;;;;4.63;2.45;;;;;;;21.98;100.00;96016.34;5078454;28;20592;-67
2023/07/19 03:02:34;;;;;;;4.47;2.58;;;;;;;22.00;100.00;96014.25;5078362;28;20203;-67
2023/07/19 03:05:02;;;;;;;6.80;2.85;;;;;;;22.14;100.00;96021.63;5078394;28;20224;-67
2023/07/19 03:07:29;;;;;;;6.80;2.92;;;;;;;22.39;100.00;96027.25;5077176;28;20576;-67
2023/07/19 03:09:56;;;;;;;5.22;2.08;;;;;;;22.05;100.00;96032.00;5078226;28;20219;-67
2023/07/19 03:12:22;;;;;;;6.15;2.53;;;;;;;22.19;100.00;96027.06;5078698;28;20204;-67
2023/07/19 03:14:49;;;;;;;6.13;2.78;;;;;;;22.13;100.00;96018.16;5078024;28;20199;-66
2023/07/19 03:17:15;;;;;;;4.95;2.58;;;;;;;22.12;100.00;96029.09;5077356;28;20200;-68
2023/07/19 03:19:42;;;;;;;4.80;2.38;;;;;;;21.65;100.00;96024.56;5077677;28;20228;-67
2023/07/19 03:22:08;;;;;;;9.30;3.45;;;;;;;21.80;100.00;96019.38;5078072;28;20200;-66
2023/07/19 03:24:36;;;;;;;7.50;2.83;;;;;;;22.09;100.00;96027.75;5077868;28;20596;-67
2023/07/19 03:27:03;;;;;;;6.38;2.55;;;;;;;21.90;100.00;96022.97;5077659;28;20207;-67
2023/07/19 03:29:30;;;;;;;6.28;2.83;;;;;;;21.93;100.00;96016.28;5077673;28;20262;-67
2023/07/19 03:31:56;;;;;;;6.90;3.03;;;;;;;22.00;100.00;96024.97;5077530;28;20206;-66
2023/07/19 03:34:22;;;;;;;6.03;2.63;;;;;;;21.96;100.00;96021.16;5077991;28;20199;-66
2023/07/19 03:36:49;;;;;;;7.78;2.90;;;;;;;21.97;100.00;96020.09;5077987;28;20215;-66
2023/07/19 03:39:15;;;;;;;4.75;2.30;;;;;;;22.05;100.00;96018.56;5076853;28;20949;-67
2023/07/19 03:41:43;;;;;;;6.32;2.67;;;;;;;22.31;100.00;96009.75;5077603;28;20200;-67
2023/07/19 03:44:10;;;;;;;4.10;2.20;;;;;;;22.04;100.00;96020.72;5077655;28;20247;-66
2023/07/19 03:46:36;;;;;;;5.80;2.58;;;;;;;22.10;100.00;96021.31;5077807;28;20204;-66
2023/07/19 03:49:04;;;;;;;9.98;2.72;;;;;;;22.14;100.00;96017.06;5076707;28;20204;-67
2023/07/19 03:51:30;;;;;;;4.90;2.55;;;;;;;22.06;100.00;96025.56;5077819;28;20594;-66
2023/07/19 03:53:57;;;;;;;6.30;2.75;;;;;;;22.14;100.00;96024.31;5077642;28;20200;-67
2023/07/19 03:56:23;;;;;;;5.55;2.38;;;;;;;22.14;100.00;96027.78;5077624;28;20207;-67
2023/07/19 03:58:51;;;;;;;7.95;3.53;;;;;;;22.52;100.00;96030.34;5077079;28;20204;-67
2023/07/19 04:01:18;;;;;;;5.93;2.70;;;;;;;22.25;100.00;96017.97;5077577;28;20583;-67
2023/07/19 04:03:45;;;;;;;7.13;2.85;;;;;;;22.25;100.00;96012.59;5076469;28;20676;-66
2023/07/19 04:06:11;;;;;;;11.70;3.17;;;;;;;22.10;100.00;96010.59;5077878;28;20203;-67
2023/07/19 04:08:38;;;;;;;7.80;3.20;;;;;;;22.25;100.00;96012.59;5077386;28;20954;-67
2023/07/19 04:11:04;;;;;;;8.48;2.75;;;;;;;21.95;100.00;96020.34;5076867;28;20230;-68
2023/07/19 04:13:31;;;;;;;7.10;3.22;;;;;;;21.94;100.00;96028.66;5076864;28;20211;-67
2023/07/19 04:15:59;;;;;;;10.63;3.70;;;;;;;22.35;100.00;96026.16;5077162;28;20679;-67
2023/07/19 04:18:26;;;;;;;10.90;3.72;;;;;;;21.85;100.00;96038.22;5076267;28;20200;-66
2023/07/19 04:20:57;;;;;;;4.85;2.40;;;;;;;22.26;100.00;96036.56;5076573;28;21025;-67
2023/07/19 04:23:23;;;;;;;4.75;2.70;;;;;;;21.94;100.00;96039.38;5077165;28;20233;-66
2023/07/19 04:25:51;;;;;;;9.23;3.35;;;;;;;22.17;100.00;96039.91;5077179;28;20223;-67
2023/07/19 04:28:17;;;;;;;4.88;2.30;;;;;;;22.26;100.00;96044.63;5075716;28;20276;-67
2023/07/19 04:30:45;;;;;;;6.13;3.03;;;;;;;22.39;100.00;96043.38;5076661;28;20318;-67
2023/07/19 04:33:13;;;;;;;6.30;2.80;;;;;;;22.59;100.00;96043.56;5076997;28;20203;-67
2023/07/19 04:35:40;;;;;;;6.47;3.00;;;;;;;22.38;100.00;96047.16;5076906;28;20196;-66
2023/07/19 04:38:06;;;;;;;10.07;3.20;;;;;;;22.39;100.00;96046.88;5076271;28;20360;-68
2023/07/19 04:40:33;;;;;;;6.78;3.13;;;;;;;22.20;100.00;96053.63;5076703;28;20227;-65
2023/07/19 04:43:01;;;;;;;5.80;2.95;;;;;;;22.49;100.00;96052.34;5076775;28;20218;-67
2023/07/19 04:45:28;;;;;;;10.35;3.67;;;;;;;22.50;100.00;96053.94;5076337;28;20323;-66
2023/07/19 04:47:55;;;;;;;7.05;3.03;;;;;;;22.62;100.00;96057.31;5075610;28;20210;-67
2023/07/19 04:50:24;;;;;;;8.88;3.10;;;;;;;22.86;100.00;96063.94;5076610;28;20245;-68
2023/07/19 04:52:51;;;;;;;7.80;3.13;;;;;;;22.77;100.00;96071.69;5076043;28;20640;-67
2023/07/19 04:55:17;;;;;;;11.20;3.17;;;;;;;22.95;100.00;96065.06;5076787;28;20220;-68
2023/07/19 04:57:44;;;;;;;7.47;2.53;;;;;;;23.08;100.00;96062.00;5075841;28;20195;-67
2023/07/19 05:00:13;;;;;;;7.90;3.03;;;;;;;23.26;100.00;96064.28;5075929;28;20235;-65
2023/07/19 05:02:40;;;;;;;5.65;3.08;;;;;;;23.15;100.00;96062.56;5076720;28;20207;-68
2023/07/19 05:05:07;;;;;;;9.38;2.67;;;;;;;23.04;100.00;96066.25;5076725;28;20639;-66
2023/07/19 05:07:36;;;;;;;6.88;3.38;;;;;;;23.20;100.00;96062.63;5075327;28;21340;-65
2023/07/19 05:10:04;;;;;;;11.73;3.55;;;;;;;22.96;100.00;96066.69;5076775;28;20220;-65
2023/07/19 05:12:30;;;;;;;7.22;3.38;;;;;;;23.09;100.00;96063.59;5076549;28;20207;-65
2023/07/19 05:14:57;;;;;;;4.63;2.80;;;;;;;22.78;100.00;96062.56;5075919;28;20206;-66
2023/07/19 05:17:24;;;;;;;10.57;3.88;;;;;;;22.98;100.00;96061.91;5075471;28;20208;-67
2023/07/19 05:19:50;;;;;;;6.22;2.75;;;;;;;23.12;100.00;96052.34;5075960;28;20774;-66
2023/07/19 05:22:17;;;;;;;6.32;3.42;;;;;;;23.15;100.00;96047.25;5076291;28;20204;-68
2023/07/19 05:24:45;;;;;;;6.55;2.88;;;;;;;23.51;100.00;96049.91;5076027;28;20387;-65
2023/07/19 05:27:15;;;;;;;6.43;3.25;;;;;;;23.02;100.00;96052.28;5075430;28;20315;-67
2023/07/19 05:29:41;;;;;;;7.60;3.22;;;;;;;23.04;100.00;96044.75;5076376;28;20239;-68
2023/07/19 05:32:08;;;;;;;7.22;3.40;;;;;;;23.09;100.00;96050.16;5076132;28;20656;-66
2023/07/19 05:34:35;;;;;;;7.53;3.17;;;;;;;23.06;100.00;96053.38;5076331;28;20210;-65
2023/07/19 05:37:03;;;;;;;5.07;2.80;;;;;;;23.15;100.00;96051.81;5075724;28;20616;-67
2023/07/19 05:39:30;;;;;;;5.93;3.53;;;;;;;23.07;100.00;96057.69;5075395;28;20220;-67
2023/07/19 05:41:58;;;;;;;8.80;3.00;;;;;;;23.28;100.00;96072.88;5074277;28;20968;-64
2023/07/19 05:44:25;;;;;;;5.63;3.03;;;;;;;23.60;100.00;96071.72;5075977;28;20715;-68
2023/07/19 05:46:52;;;;;;;7.32;2.67;;;;;;;23.68;100.00;96063.16;5075453;28;20710;-65
2023/07/19 05:49:19;;;;;;;7.45;3.42;;;;;;;23.55;100.00;96064.44;5075376;28;20223;-68
2023/07/19 05:51:45;;;;;;;7.20;2.45;;;;;;;23.67;100.00;96073.09;5076530;28;20208;-68
2023/07/19 05:54:12;;;;;;;5.07;2.75;;;;;;;23.77;100.00;96067.00;5077306;28;20204;-68
2023/07/19 05:56:38;;;;;;;5.32;2.50;;;;;;;23.68;100.00;96066.66;5075857;28;20211;-67
2023/07/19 05:59:06;;;;;;;8.40;3.50;;;;;;;24.08;100.00;96075.75;5075440;28;20204;-68
2023/07/19 06:01:33;;;;;;;5.28;2.92;;;;;;;23.89;100.00;96076.47;5076042;28;20675;-67
2023/07/19 06:03:59;;;;;;;5.78;2.83;;;;;;;23.69;100.00;96081.78;5079326;28;20208;-68
2023/07/19 06:06:26;;;;;;;8.38;3.15;;;;;;;23.99;100.00;96076.50;5079456;28;20370;-68
2023/07/19 06:08:52;;;;;;;5.18;2.47;;;;;;;24.11;100.00;96074.41;5078714;28;20215;-66
2023/07/19 06:11:19;;;;;;;4.68;2.38;;;;;;;23.95;100.00;96078.94;5079092;28;21004;-67
2023/07/19 06:13:45;;;;;;;4.13;2.33;;;;;;;23.90;100.00;96080.78;5079693;28;20203;-66
2023/07/19 06:16:14;;;;;;;8.25;2.95;;;;;;;24.24;100.00;96080.09;5079509;28;20224;-67
2023/07/19 06:18:40;;;;;;;4.70;2.38;;;;;;;24.22;100.00;96084.13;5078662;28;20204;-68
2023/07/19 06:21:07;;;;;;;2.55;1.40;;;;;;;24.27;91.55;96089.53;5079225;28;20585;-67
2023/07/19 06:23:33;;;;;;;10.63;1.70;;;;;;;24.20;86.43;96094.38;5079183;28;20215;-64
2023/07/19 06:26:00;;;;;;;3.35;1.40;;;;;;;24.36;83.92;96087.94;5079760;28;20211;-68
2023/07/19 06:28:28;;;;;;;2.75;1.70;;;;;;;24.53;83.19;96091.22;5078087;28;20204;-68
2023/07/19 06:30:55;;;;;;;3.70;1.60;;;;;;;24.59;83.57;96094.50;5078834;28;20227;-65
2023/07/19 06:33:23;;;;;;;2.55;1.63;;;;;;;24.66;81.64;96089.63;5078948;28;20200;-64
2023/07/19 06:35:51;;;;;;;4.57;1.98;;;;;;;24.51;84.50;96082.63;5079209;28;20211;-64
2023/07/19 06:38:17;;;;;;;8.32;2.67;;;;;;;24.34;83.65;96093.59;5078268;28;20231;-66
2023/07/19 06:40:44;;;;;;;9.10;1.77;;;;;;;24.54;82.88;96095.56;5078751;28;20250;-66
2023/07/19 06:43:10;;;;;;;2.50;1.42;;;;;;;24.60;83.95;96087.22;5078967;28;20215;-65
2023/07/19 06:45:37;;;;;;;3.10;1.38;;;;;;;24.78;80.60;96089.38;5078666;28;20264;-67
2023/07/19 06:48:03;;;;;;;2.63;1.48;;;;;;;25.01;82.80;96095.03;5077696;28;20196;-67
2023/07/19 06:50:31;;;;;;;5.00;2.10;;;;;;;25.21;80.71;96097.78;5078545;28;20220;-66
2023/07/19 06:52:59;;;;;;;5.90;2.15;;;;;;;25.17;81.41;96091.31;5079359;28;20210;-65
2023/07/19 06:55:26;;;;;;;3.47;2.08;;;;;;;25.25;81.07;96088.06;5078781;28;20660;-68
2023/07/19 06:57:53;;;;;;;7.47;1.67;;;;;;;25.36;79.75;96090.47;5077687;28;21000;-65
2023/07/19 07:00:20;;;;;;;4.28;1.98;;;;;;;25.53;79.99;96088.28;5078146;28;20248;-67
2023/07/19 07:02:47;;;;;;;13.82;1.95;;;;;;;25.48;77.31;96091.03;5078385;28;20208;-67
2023/07/19 07:05:13;;;;;;;3.08;1.60;;;;;;;25.80;77.18;96094.19;5077644;28;20227;-66
2023/07/19 07:07:41;;;;;;;2.97;1.65;;;;;;;26.02;75.47;96100.88;5078622;28;20204;-65
2023/07/19 07:10:09;;;;;;;4.68;1.27;;;;;;;25.93;75.40;96113.31;5078064;28;20220;-65
2023/07/19 07:12:36;;;;;;;3.72;1.38;;;;;;;26.17;73.85;96106.22;5077370;28;20200;-67
2023/07/19 07:15:03;;;;;;;5.32;1.95;;;;;;;26.14;73.69;96114.06;5077277;28;20239;-65
2023/07/19 07:17:30;;;;;;;3.50;1.77;;;;;;;26.00;75.02;96113.81;5077850;28;20208;-67
2023/07/19 07:19:56;;;;;;;1.85;1.40;;;;;;;26.22;72.14;96119.72;5077491;28;20396;-66
2023/07/19 07:22:23;;;;;;;2.35;1.27;;;;;;;26.25;71.82;96121.84;5076544;28;20232;-67
2023/07/19 07:24:50;;;;;;;3.42;1.83;;;;;;;26.58;73.71;96126.59;5077521;28;20211;-66
2023/07/19 07:27:17;;;;;;;2.92;1.30;;;;;;;26.39;72.56;96139.13;5076748;28;20203;-68
2023/07/19 07:29:44;;;;;;;5.72;1.75;;;;;;;26.60;72.79;96136.03;5077399;28;20223;-67
2023/07/19 07:32:11;;;;;;;3.55;1.63;;;;;;;26.68;70.38;96131.91;5077831;28;20207;-67
2023/07/19 07:34:38;;;;;;;16.23;2.60;;;;;;;27.01;68.65;96126.63;5077748;28;20659;-67
2023/07/19 07:37:05;;;;;;;4.57;1.50;;;;;;;27.12;72.12;96123.53;5077548;28;20621;-68
2023/07/19 07:39:32;;;;;;;1.85;1.23;;;;;;;26.85;71.67;96132.38;5077466;28;20223;-65
2023/07/19 07:42:00;;;;;;;5.20;2.38;;;;;;;27.11;70.95;96132.75;5077768;28;20203;-68
2023/07/19 07:44:26;;;;;;;7.43;2.42;;;;;;;27.19;70.79;96126.72;5078053;28;20203;-66
2023/07/19 07:46:53;;;;;;;4.03;2.15;;;;;;;27.24;71.25;96125.88;5076783;28;20309;-68
2023/07/19 07:49:19;;;;;;;4.38;2.00;;;;;;;26.90;73.27;96129.63;5077149;28;21174;-68
2023/07/19 07:51:46;;;;;;;4.00;2.08;;;;;;;27.01;70.20;96125.78;5077422;28;20663;-68
2023/07/19 07:54:13;;;;;;;3.85;1.75;;;;;;;27.06;71.06;96128.47;5077947;28;20204;-66
2023/07/19 07:56:39;;;;;;;6.55;1.52;;;;;;;27.50;69.53;96121.88;5077097;28;20855;-67
2023/07/19 07:59:07;;;;;;;6.45;1.88;;;;;;;27.68;69.60;96116.56;5076584;28;20203;-68
2023/07/19 08:01:34;;;;;;;3.08;1.73;;;;;;;27.17;69.20;96123.47;5077377;28;20199;-67
2023/07/19 08:04:00;;;;;;;3.78;1.65;;;;;;;27.13;69.21;96125.13;5076584;28;20679;-68
2023/07/19 08:06:27;;;;;;;5.75;1.80;;;;;;;27.14;68.76;96110.53;5076168;28;20220;-66
2023/07/19 08:08:53;;;;;;;4.47;2.05;;;;;;;26.96;71.14;96117.69;5076151;28;20215;-66
2023/07/19 08:11:21;;;;;;;3.83;1.85;;;;;;;27.30;68.81;96112.03;5076610;28;20200;-67
2023/07/19 08:13:47;;;;;;;3.67;1.73;;;;;;;26.80;68.51;96105.34;5075771;28;20211;-67
2023/07/19 08:16:15;;;;;;;3.95;1.60;;;;;;;27.72;67.88;96099.47;5076234;28;20211;-66
2023/07/19 08:18:42;;;;;;;4.40;1.58;;;;;;;27.74;69.06;96099.97;5076601;28;20649;-67
2023/07/19 08:21:08;;;;;;;7.10;1.80;;;;;;;27.90;65.12;96103.31;5076387;28;20227;-65
2023/07/19 08:23:35;;;;;;;3.42;1.90;;;;;;;28.11;66.55;96089.25;5077010;28;21462;-68
2023/07/19 08:26:02;;;;;;;2.55;1.50;;;;;;;28.47;64.56;96083.09;5076983;28;20220;-68
2023/07/19 08:28:28;;;;;;;3.63;1.67;;;;;;;28.23;65.79;96076.13;5075621;28;20200;-66
2023/07/19 08:30:55;;;;;;;3.88;1.40;;;;;;;28.22;62.82;96069.09;5076313;28;20223;-66
2023/07/19 08:33:24;;;;;;;5.65;2.17;;;;;;;28.55;61.04;96065.38;5077451;28;20207;-67
2023/07/19 08:35:51;;;;;;;3.00;1.45;;;;;;;27.83;63.41;96075.78;5077228;28;20626;-67
2023/07/19 08:38:17;;;;;;;1.83;1.02;;;;;;;27.82;59.04;96068.75;5075493;28;20211;-67
2023/07/19 08:40:50;;;;;;;2.67;1.10;;;;;;;28.67;57.15;96065.78;5076185;28;20228;-66
2023/07/19 08:43:17;;;;;;;3.50;1.27;;;;;;;28.13;55.67;96061.88;5076657;28;20208;-67
2023/07/19 08:45:44;;;;;;;5.65;1.33;;;;;;;28.13;53.84;96059.97;5076446;28;20219;-67
2023/07/19 08:48:11;;;;;;;2.33;1.38;;;;;;;28.32;53.16;96051.88;5076290;28;20968;-67
2023/07/19 08:50:40;;;;;;;2.92;1.40;;;;;;;28.38;53.07;96060.47;5076395;28;20242;-67
2023/07/19 08:53:07;;;;;;;4.47;1.20;;;;;;;28.20;54.56;96059.66;5076582;28;20206;-65
2023/07/19 08:55:33;;;;;;;3.72;1.50;;;;;;;28.07;53.34;96054.91;5076737;28;20196;-68
2023/07/19 08:58:01;;;;;;;1.88;1.27;;;;;;;28.21;53.31;96066.66;5076227;28;20206;-66
2023/07/19 09:00:31;;;;;;;1.80;1.20;;;;;;;28.25;53.41;96062.31;5075834;28;20223;-66
2023/07/19 09:02:58;;;;;;;2.05;1.27;;;;;;;28.29;52.57;96057.91;5075723;28;20199;-67
2023/07/19 09:05:29;;;;;;;3.72;1.30;;;;;;;28.39;53.53;96062.06;5076168;28;20697;-66
2023/07/19 09:08:00;;;;;;;2.15;1.10;;;;;;;28.36;54.91;96054.53;5073517;28;20261;-66
2023/07/19 09:10:27;;;;;;;2.13;1.40;;;;;;;28.15;55.09;96062.41;5074320;28;20292;-66
2023/07/19 09:12:53;;;;;;;2.78;0.93;;;;;;;28.20;54.99;96065.06;5074722;28;20204;-66
2023/07/19 09:15:20;;;;;;;6.25;1.48;;;;;;;28.51;54.56;96059.75;5075732;28;20208;-67
2023/07/19 09:17:49;;;;;;;4.70;1.67;;;;;;;28.29;54.25;96063.31;5075111;28;20454;-68
2023/07/19 09:20:17;;;;;;;1.92;1.13;;;;;;;27.75;54.38;96054.75;5076481;28;20219;-67
2023/07/19 09:22:44;;;;;;;12.80;1.52;;;;;;;28.08;54.82;96057.34;5075435;28;20203;-67
2023/07/19 09:25:13;;;;;;;3.63;1.30;;;;;;;28.55;55.26;96055.34;5075171;28;20208;-66
2023/07/19 09:27:43;;;;;;;4.32;1.83;;;;;;;28.84;54.24;96056.00;5075181;28;20211;-66
2023/07/19 09:30:10;;;;;;;3.03;1.13;;;;;;;28.34;53.23;96064.84;5075170;28;20228;-67
2023/07/19 09:32:37;;;;;;;2.45;1.30;;;;;;;28.41;52.54;96068.03;5076001;28;20652;-68
2023/07/19 09:35:05;;;;;;;3.33;1.02;;;;;;;28.62;51.28;96071.25;5076305;28;20207;-67
2023/07/19 09:37:32;;;;;;;3.65;1.45;;;;;;;28.67;51.04;96077.41;5075329;28;20223;-68
2023/07/19 09:40:00;;;;;;;1.95;1.20;;;;;;;29.12;51.20;96074.84;5078973;28;20219;-68
2023/07/19 09:42:31;;;;;;;1.17;0.93;;;;;;;29.27;49.91;96066.44;5079784;28;20204;-68
2023/07/19 09:44:59;;;;;;;2.45;1.15;;;;;;;28.73;51.26;96067.28;5079305;28;20203;-67
2023/07/19 09:47:26;;;;;;;2.13;1.10;;;;;;;28.94;52.28;96071.34;5078586;28;20250;-66
2023/07/19 09:49:54;;;;;;;3.38;1.40;;;;;;;29.15;52.51;96068.00;5079055;28;20674;-69
2023/07/19 09:52:25;;;;;;;4.53;1.33;;;;;;;29.25;50.66;96065.13;5079587;28;20204;-68
2023/07/19 09:54:51;;;;;;;2.72;1.10;;;;;;;29.25;52.72;96068.66;5078724;28;20207;-67
2023/07/19 09:57:18;;;;;;;1.70;1.30;;;;;;;29.60;51.37;96060.69;5078388;28;20392;-68
2023/07/19 09:59:49;;;;;;;2.15;1.20;;;;;;;29.51;51.12;96069.06;5078899;28;20224;-67
2023/07/19 10:02:16;;;;;;;2.83;1.60;;;;;;;29.32;50.74;96071.00;5078996;28;20574;-66
2023/07/19 10:04:43;;;;;;;5.00;1.75;;;;;;;28.86;51.54;96077.41;5079450;28;20210;-68
2023/07/19 10:07:11;;;;;;;2.03;1.27;;;;;;;29.51;51.82;96074.47;5077860;28;20348;-67
2023/07/19 10:09:40;;;;;;;2.33;1.13;;;;;;;29.44;49.71;96065.91;5078585;28;20223;-67
2023/07/19 10:12:09;;;;;;;3.17;1.13;;;;;;;29.36;49.45;96074.75;5078893;28;20200;-68
2023/07/19 10:14:36;;;;;;;1.50;0.93;;;;;;;29.01;49.65;96078.03;5079145;28;20204;-68
2023/07/19 10:17:06;;;;;;;4.53;1.42;;;;;;;29.58;47.87;96068.34;5077895;28;20192;-67
2023/07/19 10:19:34;;;;;;;2.88;0.93;;;;;;;29.17;47.13;96082.88;5078080;28;20230;-68
2023/07/19 10:22:02;;;;;;;1.17;0.65;;;;;;;29.15;46.07;96073.41;5078938;28;20208;-67
2023/07/19 10:24:29;;;;;;;0.95;0.60;;;;;;;28.61;46.16;96073.16;5078946;28;20211;-66
2023/07/19 10:26:56;;;;;;;1.25;0.60;;;;;;;28.77;46.29;96066.44;5077593;28;20215;-66
2023/07/19 10:29:25;;;;;;;1.98;1.00;;;;;;;29.28;46.29;96067.25;5077800;28;20527;-66
2023/07/19 10:31:51;;;;;;;2.70;1.35;;;;;;;29.54;48.66;96052.94;5078889;28;20207;-68
2023/07/19 10:34:29;;;;;;;4.55;1.05;;;;;;;29.38;46.82;96072.53;5078248;28;20200;-66
2023/07/19 10:36:56;;;;;;;2.13;1.10;;;;;;;29.19;46.45;96060.91;5078018;28;20268;-68
2023/07/19 10:39:23;;;;;;;1.15;0.82;;;;;;;29.56;45.82;96049.91;5078321;28;20246;-67
2023/07/19 10:41:50;;;;;;;1.55;0.82;;;;;;;30.16;46.03;96053.09;5078306;28;20200;-68
2023/07/19 10:44:17;;;;;;;2.95;1.05;;;;;;;30.46;45.77;96045.13;5078346;28;20652;-68
2023/07/19 10:46:44;;;;;;;2.35;0.77;;;;;;;30.36;44.11;96052.69;5076533;28;20794;-68
2023/07/19 10:49:11;;;;;;;2.92;0.90;;;;;;;30.73;43.42;96049.69;5076195;28;20231;-68
2023/07/19 10:51:39;;;;;;;1.23;0.90;;;;;;;30.87;43.51;96038.44;5078613;28;20643;-68
2023/07/19 10:54:08;;;;;;;0.82;0.52;;;;;;;30.73;43.62;96042.34;5079523;28;20204;-68
2023/07/19 10:56:37;;;;;;;1.27;0.68;;;;;;;30.57;45.50;96043.00;5078557;28;20200;-67
2023/07/19 10:59:03;;;;;;;0.90;0.68;;;;;;;30.13;44.47;96039.31;5076924;28;20203;-68
2023/07/19 11:01:30;;;;;;;2.58;1.05;;;;;;;30.33;45.19;96040.50;5078352;28;20207;-66
2023/07/19 11:04:02;;;;;;;1.05;0.63;;;;;;;30.33;43.44;96037.78;5078808;28;20563;-68
2023/07/19 11:06:28;;;;;;;3.10;0.77;;;;;;;29.64;46.03;96033.75;5077933;28;20246;-68
2023/07/19 11:09:05;;;;;;;2.38;1.10;;;;;;;29.94;44.46;96034.00;5077288;28;20200;-67
2023/07/19 11:11:35;;;;;;;3.20;0.82;;;;;;;29.77;43.75;96032.94;5078524;28;20207;-65
2023/07/19 11:14:01;;;;;;;5.28;0.80;;;;;;;29.85;44.60;96030.34;5078290;28;20208;-67
2023/07/19 11:16:28;;;;;;;0.85;0.63;;;;;;;30.80;44.68;96023.66;5077876;28;20200;-67
2023/07/19 11:18:55;;;;;;;2.97;1.33;;;;;;;30.78;44.04;96022.34;5077284;28;20203;-67
2023/07/19 11:21:26;;;;;;;3.67;0.98;;;;;;;31.31;42.41;96015.88;5078372;28;20683;-67
2023/07/19 11:23:53;;;;;;;0.93;0.50;;;;;;;30.32;43.08;96024.47;5077963;28;20292;-67
2023/07/19 11:26:21;;;;;;;3.15;0.90;;;;;;;30.47;43.89;96013.28;5078356;28;20232;-68
2023/07/19 11:28:49;;;;;;;0.85;0.68;;;;;;;30.36;43.02;96012.69;5077473;28;20218;-66